Time;durP1;ratioP1;P1;durP2;ratioP2;P2;SDS_P1;SDS_P2;PMS_P1;PMS_P2;Temp;Humidity;BMP_temperature;BMP_pressure;BME280_temperature;BME280_humidity;BME280_pressure;Samples;Min_cycle;Max_cycle;Signal;HPM_P1;HPM_P2
2023/08/29 00:04:54;;;;;;;9.40;1.40;;;;;;;21.79;48.73;101197.22;16116325;19;129489;-59
2023/08/29 00:10:16;;;;;;;7.13;1.52;;;;;;;21.79;49.10;101202.78;16118586;19;130817;-61
2023/08/29 00:15:38;;;;;;;8.10;1.40;;;;;;;21.78;48.58;101181.63;16107542;19;130944;-59
2023/08/29 00:21:00;;;;;;;5.47;0.95;;;;;;;21.77;48.74;101171.59;16113907;19;133906;-58
2023/08/29 00:26:22;;;;;;;5.93;1.27;;;;;;;21.76;48.93;101174.63;16111851;19;130538;-59
2023/08/29 00:31:44;;;;;;;6.63;1.58;;;;;;;21.75;48.54;101178.50;16111882;19;130762;-60
2023/08/29 00:37:07;;;;;;;8.13;1.73;;;;;;;21.74;48.55;101177.69;16111352;19;130672;-62
2023/08/29 00:42:29;;;;;;;6.50;1.40;;;;;;;21.73;48.86;101172.34;16112909;19;129781;-60
2023/08/29 00:47:51;;;;;;;5.60;1.15;;;;;;;21.73;48.57;101172.34;16114762;19;132009;-59
2023/08/29 00:53:14;;;;;;;4.63;1.17;;;;;;;21.73;48.97;101178.78;16115501;19;131240;-59
2023/08/29 00:58:36;;;;;;;6.75;1.33;;;;;;;21.70;48.83;101176.50;16115092;19;130647;-58
2023/08/29 01:03:59;;;;;;;4.55;1.25;;;;;;;21.71;49.02;101163.44;16108281;19;130617;-58
2023/08/29 01:09:21;;;;;;;4.40;1.05;;;;;;;21.71;48.81;101160.66;16114901;19;131847;-58
2023/08/29 01:15:03;;;;;;;4.90;1.08;;;;;;;21.69;48.53;101160.91;16117822;19;130735;-58
2023/08/29 01:20:28;;;;;;;7.05;1.27;;;;;;;21.69;48.69;101163.69;16113869;19;130567;-59
2023/08/29 01:26:13;;;;;;;3.88;1.23;;;;;;;21.68;48.94;101178.72;16114027;19;130344;-58
2023/08/29 01:31:37;;;;;;;6.53;1.27;;;;;;;21.65;48.50;101180.09;16107759;19;131766;-59
2023/08/29 01:36:59;;;;;;;6.40;1.40;;;;;;;21.65;48.78;101180.09;16109500;19;130432;-59
2023/08/29 01:42:21;;;;;;;6.60;1.25;;;;;;;21.64;48.95;101181.19;16115139;19;130355;-58
2023/08/29 01:47:43;;;;;;;3.05;0.90;;;;;;;21.65;48.72;101195.97;16111450;19;131194;-59
2023/08/29 01:53:05;;;;;;;6.82;0.93;;;;;;;21.63;48.52;101189.81;16111474;19;130687;-59
2023/08/29 01:58:27;;;;;;;4.40;1.02;;;;;;;21.63;48.83;101182.28;16113143;19;129684;-59
2023/08/29 02:03:50;;;;;;;7.25;0.98;;;;;;;21.62;48.70;101182.56;16111453;19;130150;-59
2023/08/29 02:09:12;;;;;;;2.67;1.02;;;;;;;21.61;48.56;101189.22;16114449;19;129655;-59
2023/08/29 02:14:34;;;;;;;6.00;1.08;;;;;;;21.60;48.63;101181.97;16139331;19;130885;-58
2023/08/29 02:19:56;;;;;;;3.92;1.00;;;;;;;21.59;48.91;101180.28;16181581;19;129752;-58
2023/08/29 02:25:18;;;;;;;3.72;0.90;;;;;;;21.59;48.85;101183.06;16192469;19;130482;-58
2023/08/29 02:30:40;;;;;;;4.13;0.88;;;;;;;21.59;48.95;101185.84;16193141;19;132282;-59
2023/08/29 02:36:04;;;;;;;6.00;0.70;;;;;;;21.59;48.42;101199.78;16189158;19;128677;-59
2023/08/29 02:41:26;;;;;;;3.90;1.35;;;;;;;21.59;48.65;101213.69;16198956;19;128981;-59
2023/08/29 02:46:48;;;;;;;4.88;0.80;;;;;;;21.58;48.64;101207.28;16205642;19;128824;-58
2023/08/29 02:52:10;;;;;;;3.00;0.80;;;;;;;21.57;48.75;101196.41;16205768;19;129627;-59
2023/08/29 02:57:31;;;;;;;3.30;0.57;;;;;;;21.57;48.54;101218.69;16205121;19;130450;-59
2023/08/29 03:02:53;;;;;;;3.50;0.68;;;;;;;21.55;48.90;101209.72;16165254;19;130895;-62
2023/08/29 03:08:15;;;;;;;3.85;0.80;;;;;;;21.55;48.90;101195.81;16148734;19;130836;-58
2023/08/29 03:13:37;;;;;;;2.65;0.70;;;;;;;21.54;48.60;101189.41;16150228;19;129388;-59
2023/08/29 03:19:00;;;;;;;3.33;0.70;;;;;;;21.54;48.63;101205.31;16147885;19;131063;-64
2023/08/29 03:24:22;;;;;;;2.03;0.45;;;;;;;21.52;48.64;101197.19;16142757;19;130387;-59
2023/08/29 03:29:44;;;;;;;4.40;0.73;;;;;;;21.51;48.50;101192.72;16143337;19;131050;-59
2023/08/29 03:35:07;;;;;;;2.58;1.00;;;;;;;21.50;48.65;101197.47;16143004;19;129841;-59
2023/08/29 03:40:30;;;;;;;1.20;0.55;;;;;;;21.50;48.80;101197.47;16144091;19;129994;-56
2023/08/29 03:46:05;;;;;;;2.45;0.70;;;;;;;21.49;48.79;101184.63;16148332;19;129387;-58
2023/08/29 03:51:27;;;;;;;1.10;0.70;;;;;;;21.48;48.92;101190.41;16128929;19;129440;-59
2023/08/29 03:56:49;;;;;;;3.70;0.70;;;;;;;21.47;48.50;101175.66;16123877;19;131310;-59
2023/08/29 04:02:11;;;;;;;2.03;0.60;;;;;;;21.46;48.54;101164.81;16119403;19;130676;-59
2023/08/29 04:07:33;;;;;;;2.80;0.73;;;;;;;21.44;48.50;101173.41;16118092;19;129720;-59
2023/08/29 04:12:55;;;;;;;1.30;0.57;;;;;;;21.45;48.48;101180.66;16116791;19;130966;-59
2023/08/29 04:18:18;;;;;;;2.33;0.63;;;;;;;21.43;48.61;101182.84;16116670;19;130686;-57
2023/08/29 04:23:40;;;;;;;2.90;0.50;;;;;;;21.43;48.39;101182.84;16116733;19;129504;-59
2023/08/29 04:29:02;;;;;;;2.08;0.50;;;;;;;21.43;48.50;101187.59;16114322;19;130696;-60
2023/08/29 04:34:24;;;;;;;2.65;0.70;;;;;;;21.43;48.59;101173.66;16116091;19;130813;-60
2023/08/29 04:39:46;;;;;;;1.55;0.77;;;;;;;21.42;48.80;101161.69;16117431;19;130698;-59
2023/08/29 04:45:08;;;;;;;1.15;0.47;;;;;;;21.40;48.62;101150.00;16113419;19;130879;-59
2023/08/29 04:50:30;;;;;;;2.50;0.40;;;;;;;21.40;48.72;101143.56;16113060;19;131247;-59
2023/08/29 04:56:02;;;;;;;3.50;0.63;;;;;;;21.42;48.43;101153.31;16111563;19;131366;-59
2023/08/29 05:01:25;;;;;;;1.45;0.50;;;;;;;21.39;48.67;101133.53;16113010;19;130852;-59
2023/08/29 05:06:47;;;;;;;1.25;0.40;;;;;;;21.37;48.39;101142.16;16114504;19;130491;-58
2023/08/29 05:12:10;;;;;;;2.63;0.50;;;;;;;21.37;48.29;101139.38;16110007;19;131251;-59
2023/08/29 05:17:32;;;;;;;10.02;0.93;;;;;;;21.34;48.59;101145.44;16108550;19;130740;-57
2023/08/29 05:22:54;;;;;;;3.97;0.85;;;;;;;21.38;48.66;101149.41;16111941;19;130828;-59
2023/08/29 05:28:17;;;;;;;4.25;0.60;;;;;;;21.42;48.51;101158.06;16111502;19;131558;-59
2023/08/29 05:33:40;;;;;;;4.68;0.60;;;;;;;21.43;48.56;101160.56;16117860;19;130193;-54
2023/08/29 05:39:02;;;;;;;2.35;0.63;;;;;;;21.44;48.58;101156.69;16117673;19;129534;-53
2023/08/29 05:44:24;;;;;;;1.10;0.50;;;;;;;21.46;48.00;101156.47;16114398;19;130563;-60
2023/08/29 05:49:46;;;;;;;3.58;0.60;;;;;;;21.45;48.32;101157.56;16114143;19;129953;-58
2023/08/29 05:55:08;;;;;;;5.70;0.55;;;;;;;21.45;48.11;101152.81;16107453;19;131478;-59
2023/08/29 06:00:30;;;;;;;1.92;0.50;;;;;;;21.44;48.40;101151.13;16109232;19;131290;-60
2023/08/29 06:05:52;;;;;;;2.22;0.40;;;;;;;21.45;48.49;101141.69;16109191;19;129682;-60
2023/08/29 06:11:14;;;;;;;5.57;0.40;;;;;;;21.45;48.25;101133.34;16104651;19;130959;-60
2023/08/29 06:16:36;;;;;;;2.50;0.40;;;;;;;21.46;48.18;101145.31;16116686;19;129794;-60
2023/08/29 06:21:59;;;;;;;1.55;0.40;;;;;;;21.46;48.15;101148.94;16121626;19;130202;-60
2023/08/29 06:27:21;;;;;;;1.33;0.30;;;;;;;21.49;48.07;101145.66;16122271;19;131446;-60
2023/08/29 06:32:43;;;;;;;3.03;0.50;;;;;;;21.51;48.23;101156.53;16127960;19;130306;-59
2023/08/29 06:38:06;;;;;;;1.95;0.60;;;;;;;21.52;47.95;101150.72;16130433;19;130075;-61
2023/08/29 06:43:29;;;;;;;1.63;0.40;;;;;;;21.55;48.43;101152.13;16129723;19;129829;-67
2023/08/29 06:48:51;;;;;;;0.73;0.38;;;;;;;21.56;47.98;101147.38;16129822;19;129781;-63
2023/08/29 06:54:12;;;;;;;1.73;0.40;;;;;;;21.57;48.24;101149.06;16125949;19;131271;-67
2023/08/29 06:59:34;;;;;;;2.25;0.50;;;;;;;21.56;48.06;101158.53;16128780;19;130366;-64
2023/08/29 07:04:56;;;;;;;2.72;0.52;;;;;;;21.54;47.87;101149.63;16128367;19;129635;-60
2023/08/29 07:10:22;;;;;;;5.78;0.70;;;;;;;21.54;47.75;101155.19;16118480;19;131506;-60
2023/08/29 07:15:44;;;;;;;4.15;0.40;;;;;;;21.52;48.34;101161.84;16126266;19;129848;-61
2023/08/29 07:21:06;;;;;;;1.23;0.45;;;;;;;21.52;47.91;101161.00;16129071;19;129240;-59
2023/08/29 07:26:28;;;;;;;0.93;0.45;;;;;;;21.50;47.96;101158.47;16124033;19;129645;-59
2023/08/29 07:31:50;;;;;;;1.35;0.52;;;;;;;21.51;47.98;101165.75;16125035;19;130087;-59
2023/08/29 07:37:12;;;;;;;2.47;0.60;;;;;;;21.51;47.98;101165.75;16125999;19;130132;-59
2023/08/29 07:42:34;;;;;;;4.13;0.70;;;;;;;21.50;48.08;101163.19;16127167;19;129586;-59
2023/08/29 07:47:56;;;;;;;3.65;0.90;;;;;;;21.50;48.03;101155.69;16127390;19;130086;-58
2023/08/29 07:53:18;;;;;;;4.53;1.00;;;;;;;21.53;48.04;101157.13;16122728;19;129451;-58
2023/08/29 07:58:40;;;;;;;1.73;0.85;;;;;;;21.57;48.21;101165.78;16120548;19;130230;-59
2023/08/29 08:04:06;;;;;;;7.88;1.10;;;;;;;21.62;47.95;101168.63;16123537;19;130320;-58
2023/08/29 08:09:28;;;;;;;3.78;1.30;;;;;;;21.61;47.65;101159.44;16119929;19;129863;-59
2023/08/29 08:14:52;;;;;;;2.65;1.02;;;;;;;21.63;47.82;101164.75;16118643;19;129672;-59
2023/08/29 08:20:15;;;;;;;2.92;1.30;;;;;;;21.64;47.55;101172.00;16119104;19;130964;-58
2023/08/29 08:25:37;;;;;;;3.67;1.45;;;;;;;21.63;47.53;101171.16;16118994;19;128955;-59
2023/08/29 08:30:59;;;;;;;4.55;1.15;;;;;;;21.64;47.86;101161.69;16118508;19;129732;-58
2023/08/29 08:36:21;;;;;;;4.72;1.30;;;;;;;21.67;47.65;101160.31;16118526;19;129664;-59
2023/08/29 08:41:43;;;;;;;4.10;1.40;;;;;;;21.68;47.63;101145.31;16115031;19;130599;-59
2023/08/29 08:47:06;;;;;;;3.10;1.42;;;;;;;21.72;47.47;101151.22;16120593;19;133233;-60
2023/08/29 08:52:32;;;;;;;4.78;1.02;;;;;;;21.76;47.55;101153.19;16115253;19;130437;-59
2023/08/29 08:57:54;;;;;;;4.63;1.40;;;;;;;21.79;47.39;101152.66;16120227;19;130140;-59
2023/08/29 09:03:16;;;;;;;4.88;0.82;;;;;;;21.80;47.56;101156.31;16112820;19;130454;-58
2023/08/29 09:08:39;;;;;;;3.08;1.10;;;;;;;21.79;47.40;101152.66;16116068;19;129487;-59
2023/08/29 09:14:01;;;;;;;3.42;1.00;;;;;;;21.77;47.26;101154.03;16116129;19;129401;-59
2023/08/29 09:19:29;;;;;;;3.08;0.85;;;;;;;21.75;47.38;101148.75;16115707;19;130458;-59
2023/08/29 09:24:51;;;;;;;1.70;0.90;;;;;;;21.74;47.46;101160.97;16117682;19;130772;-59
2023/08/29 09:30:18;;;;;;;4.60;1.52;;;;;;;21.71;47.48;101161.50;16114781;19;130520;-58
2023/08/29 09:35:40;;;;;;;3.22;1.08;;;;;;;21.67;47.58;101155.59;16115481;19;129500;-59
2023/08/29 09:41:02;;;;;;;4.25;1.05;;;;;;;21.69;47.70;101152.56;16112193;19;129476;-63
2023/08/29 09:46:29;;;;;;;8.80;1.50;;;;;;;21.69;47.69;101151.72;16111207;19;130023;-59
2023/08/29 09:51:51;;;;;;;2.70;1.33;;;;;;;21.69;47.42;101152.56;16114169;19;129347;-59
2023/08/29 09:57:15;;;;;;;3.20;1.20;;;;;;;21.69;47.46;101155.34;16113345;19;130609;-59
2023/08/29 10:02:40;;;;;;;6.57;1.10;;;;;;;21.70;47.69;101154.25;16114533;19;129500;-59
2023/08/29 10:08:13;;;;;;;3.70;1.20;;;;;;;21.71;47.73;101144.78;16116364;19;130571;-59
2023/08/29 10:13:39;;;;;;;3.88;0.70;;;;;;;21.71;47.87;101150.34;16113109;19;129913;-59
2023/08/29 10:19:01;;;;;;;3.58;1.00;;;;;;;21.72;47.61;101140.06;16115551;19;129701;-59
2023/08/29 10:24:26;;;;;;;1.98;0.90;;;;;;;21.71;47.65;101150.34;16113310;19;131706;-58
2023/08/29 10:29:48;;;;;;;5.07;1.20;;;;;;;21.73;47.38;101141.72;16111876;19;129810;-59
2023/08/29 10:35:22;;;;;;;2.40;0.88;;;;;;;21.77;47.55;101134.53;16110869;19;131140;-58
2023/08/29 10:40:46;;;;;;;2.17;0.88;;;;;;;21.77;47.25;101131.75;16113096;19;129644;-59
2023/08/29 10:46:10;;;;;;;0.80;0.70;;;;;;;21.81;47.63;101127.34;16100957;19;131448;-59
2023/08/29 10:51:32;;;;;;;4.17;0.97;;;;;;;21.82;47.55;101129.84;16107463;19;130873;-59
2023/08/29 10:56:56;;;;;;;5.78;1.40;;;;;;;21.85;47.37;101122.09;16108248;19;129437;-59
2023/08/29 11:02:29;;;;;;;4.40;1.83;;;;;;;21.88;47.25;101121.56;16113482;19;130327;-59
2023/08/29 11:07:51;;;;;;;1.73;1.15;;;;;;;21.89;47.65;101114.91;16123228;19;129990;-59
2023/08/29 11:13:15;;;;;;;4.05;1.40;;;;;;;21.91;47.33;101105.16;16122865;19;130252;-59
2023/08/29 11:18:37;;;;;;;11.68;1.45;;;;;;;21.94;47.33;101099.06;16122553;19;129552;-58
2023/08/29 11:23:59;;;;;;;2.00;1.13;;;;;;;21.95;47.56;101105.47;16123839;19;129610;-59
2023/08/29 11:29:37;;;;;;;5.43;1.20;;;;;;;21.95;47.58;101099.91;16122265;19;129455;-58
2023/08/29 11:34:58;;;;;;;2.42;1.00;;;;;;;21.97;47.36;101100.47;16118611;19;130172;-59
2023/08/29 11:40:21;;;;;;;5.78;1.23;;;;;;;21.97;47.36;101092.94;16124172;19;134466;-58
2023/08/29 11:46:05;;;;;;;5.28;1.10;;;;;;;21.97;47.08;101094.91;16124898;19;130022;-59
2023/08/29 11:51:27;;;;;;;2.53;1.05;;;;;;;21.97;47.14;101084.59;16118548;19;129992;-58
2023/08/29 11:56:49;;;;;;;5.53;1.20;;;;;;;21.98;47.31;101077.09;16121095;19;131072;-59
2023/08/29 12:02:12;;;;;;;3.00;1.10;;;;;;;21.96;47.57;101065.38;16120229;19;129479;-58
2023/08/29 12:07:38;;;;;;;3.35;1.08;;;;;;;21.95;47.29;101075.69;16120734;19;130241;-58
2023/08/29 12:13:21;;;;;;;5.03;1.48;;;;;;;21.98;47.38;101071.50;16122015;19;129421;-57
2023/08/29 12:18:43;;;;;;;3.35;1.50;;;;;;;21.97;47.49;101069.84;16118643;19;129490;-59
2023/08/29 12:24:13;;;;;;;4.18;1.30;;;;;;;21.97;47.17;101061.47;16121143;19;130551;-59
2023/08/29 12:29:35;;;;;;;3.90;1.40;;;;;;;21.94;47.42;101056.44;16119559;19;129495;-59
2023/08/29 12:34:58;;;;;;;4.68;1.77;;;;;;;21.95;47.08;101055.31;16117328;19;129388;-58
2023/08/29 12:40:19;;;;;;;4.90;1.40;;;;;;;21.93;47.33;101043.59;16119798;19;130269;-59
2023/08/29 12:45:41;;;;;;;2.17;1.33;;;;;;;21.92;47.25;101044.72;16118754;19;130285;-58
2023/08/29 12:51:19;;;;;;;3.50;1.25;;;;;;;21.89;47.42;101036.91;16116352;19;129134;-58
2023/08/29 12:56:41;;;;;;;7.07;1.52;;;;;;;21.87;47.36;101022.41;16117967;19;129759;-59
2023/08/29 13:02:04;;;;;;;4.28;1.23;;;;;;;21.88;47.34;101010.16;16116018;19;131293;-59
2023/08/29 13:07:26;;;;;;;1.83;1.20;;;;;;;21.88;47.30;101021.31;16110693;19;130458;-59
2023/08/29 13:12:48;;;;;;;2.13;1.27;;;;;;;21.86;47.24;101007.63;16111617;19;130062;-59
2023/08/29 13:18:10;;;;;;;2.00;1.05;;;;;;;21.86;47.02;101006.78;16111248;19;129653;-59
2023/08/29 13:23:32;;;;;;;2.95;1.20;;;;;;;21.82;47.27;101021.25;16112285;19;130649;-59
2023/08/29 13:28:54;;;;;;;1.15;0.98;;;;;;;21.80;47.22;101031.81;16114607;19;130935;-59
2023/08/29 13:34:17;;;;;;;2.05;1.45;;;;;;;21.78;47.32;101025.69;16114928;19;130023;-56
2023/08/29 13:39:44;;;;;;;1.80;1.17;;;;;;;21.76;47.42;101035.38;16113459;19;129321;-59
2023/08/29 13:45:07;;;;;;;2.20;1.23;;;;;;;21.73;47.33;101022.84;16114870;19;134609;-59
2023/08/29 13:50:29;;;;;;;1.70;0.95;;;;;;;21.71;47.13;101025.06;16110887;19;130500;-59
2023/08/29 13:55:51;;;;;;;2.15;1.17;;;;;;;21.69;46.97;101030.03;16108383;19;130746;-59
2023/08/29 14:01:13;;;;;;;1.58;1.20;;;;;;;21.67;47.33;101032.25;16113340;19;129613;-59
2023/08/29 14:06:35;;;;;;;2.33;1.23;;;;;;;21.66;46.91;101030.59;16112250;19;129704;-60
2023/08/29 14:11:57;;;;;;;2.35;1.10;;;;;;;21.62;46.94;101024.69;16113002;19;129455;-59
2023/08/29 14:17:19;;;;;;;3.53;1.20;;;;;;;21.61;47.13;101014.66;16112170;19;130307;-59
2023/08/29 14:22:42;;;;;;;2.47;1.10;;;;;;;21.60;47.05;101023.28;16107285;19;130330;-59
2023/08/29 14:28:06;;;;;;;3.50;1.40;;;;;;;21.59;47.17;101019.69;16110248;19;129317;-58
2023/08/29 14:33:29;;;;;;;2.90;1.25;;;;;;;21.59;47.38;101018.81;16106830;19;129737;-60
2023/08/29 14:38:51;;;;;;;2.40;0.95;;;;;;;21.58;47.31;101023.56;16121492;19;130296;-57
2023/08/29 14:44:13;;;;;;;3.08;1.20;;;;;;;21.57;46.87;101009.88;16118163;19;129556;-58
2023/08/29 14:49:35;;;;;;;2.25;1.10;;;;;;;21.59;47.28;101018.81;16115724;19;129413;-58
2023/08/29 14:54:57;;;;;;;3.47;1.17;;;;;;;21.59;46.89;101016.88;16120135;19;131159;-59
2023/08/29 15:00:19;;;;;;;3.05;1.30;;;;;;;21.59;47.13;101021.59;16115977;19;130542;-59
2023/08/29 15:05:41;;;;;;;2.40;1.20;;;;;;;21.60;47.06;101014.94;16124578;19;129566;-58
2023/08/29 15:11:03;;;;;;;2.30;1.10;;;;;;;21.59;47.24;101024.38;16119110;19;129870;-59
2023/08/29 15:16:25;;;;;;;3.47;1.20;;;;;;;21.59;46.39;101024.38;16118465;19;132670;-57
2023/08/29 15:21:47;;;;;;;5.05;1.67;;;;;;;21.60;46.78;101015.75;16121695;19;132041;-58
2023/08/29 15:27:09;;;;;;;6.93;1.65;;;;;;;21.63;46.23;101019.97;16118905;19;129950;-59
2023/08/29 15:32:32;;;;;;;6.47;1.77;;;;;;;21.65;46.26;101018.59;16116137;19;130019;-55
2023/08/29 15:37:54;;;;;;;5.57;1.38;;;;;;;21.65;46.29;101015.00;16123104;19;131748;-58
2023/08/29 15:43:16;;;;;;;7.80;1.73;;;;;;;21.65;46.53;101015.00;16114486;19;131132;-58
2023/08/29 15:48:38;;;;;;;5.70;1.65;;;;;;;21.65;46.43;101013.03;16113541;19;129659;-59
2023/08/29 15:54:00;;;;;;;4.45;1.60;;;;;;;21.66;46.37;101019.47;16112789;19;130752;-59
2023/08/29 15:59:23;;;;;;;4.97;1.63;;;;;;;21.65;46.96;101018.59;16118470;19;129761;-58
2023/08/29 16:04:45;;;;;;;4.38;1.38;;;;;;;21.65;47.04;101020.56;16114185;19;131449;-58
2023/08/29 16:10:08;;;;;;;4.93;1.95;;;;;;;21.66;46.67;101017.50;16113127;19;131009;-58
2023/08/29 16:15:30;;;;;;;2.75;1.20;;;;;;;21.65;46.82;101007.47;16113788;19;131087;-58
2023/08/29 16:20:52;;;;;;;3.33;1.30;;;;;;;21.65;46.73;101009.41;16117503;19;129428;-58
2023/08/29 16:26:16;;;;;;;8.10;1.55;;;;;;;21.64;46.96;101007.75;16118158;19;131181;-58
2023/08/29 16:31:40;;;;;;;4.03;1.40;;;;;;;21.63;46.75;101012.44;16110888;19;129988;-58
2023/08/29 16:37:03;;;;;;;5.93;1.98;;;;;;;21.64;46.80;101027.22;16114937;19;130196;-58
2023/08/29 16:42:25;;;;;;;5.30;1.70;;;;;;;21.63;47.08;101029.16;16112533;19;130508;-59
2023/08/29 16:47:47;;;;;;;3.83;1.20;;;;;;;21.62;46.91;101029.44;16116119;19;129895;-57
2023/08/29 16:53:09;;;;;;;4.32;1.50;;;;;;;21.62;46.73;101023.88;16117233;19;132090;-58
2023/08/29 16:58:31;;;;;;;6.32;1.50;;;;;;;21.60;47.21;101017.72;16113040;19;131185;-59
2023/08/29 17:03:54;;;;;;;5.55;1.45;;;;;;;21.60;47.05;101014.94;16110732;19;130718;-58
2023/08/29 17:09:16;;;;;;;3.33;1.65;;;;;;;21.59;46.78;101011.31;16115031;19;131424;-58
2023/08/29 17:14:38;;;;;;;9.73;1.52;;;;;;;21.57;47.20;101002.41;16112604;19;130159;-58
2023/08/29 17:20:00;;;;;;;3.28;1.30;;;;;;;21.57;47.15;101009.88;16114048;19;129533;-58
2023/08/29 17:25:22;;;;;;;2.88;1.48;;;;;;;21.54;47.23;100994.56;16114382;19;132178;-58
2023/08/29 17:30:43;;;;;;;7.28;1.83;;;;;;;21.52;47.26;100994.84;16114805;19;130168;-58
2023/08/29 17:36:06;;;;;;;4.53;1.65;;;;;;;21.52;47.14;100991.19;16113231;19;130979;-58
2023/08/29 17:41:28;;;;;;;4.60;1.38;;;;;;;21.51;47.10;100995.94;16111370;19;129709;-57
2023/08/29 17:46:50;;;;;;;4.50;1.40;;;;;;;21.50;47.37;100999.81;16106911;19;131027;-58
2023/08/29 17:52:12;;;;;;;4.38;1.33;;;;;;;21.48;47.23;101002.00;16111501;19;129875;-58
2023/08/29 17:57:34;;;;;;;8.93;1.65;;;;;;;21.49;47.33;101000.06;16104843;19;129959;-57
2023/08/29 18:02:56;;;;;;;13.27;1.65;;;;;;;21.48;47.48;101002.00;16108455;19;130127;-57
2023/08/29 18:08:19;;;;;;;7.13;1.75;;;;;;;21.49;47.29;101002.84;16112581;19;129667;-58
2023/08/29 18:13:41;;;;;;;8.77;1.48;;;;;;;21.50;47.50;101016.53;16123773;19;131140;-58
2023/08/29 18:19:06;;;;;;;19.97;2.07;;;;;;;21.51;47.86;101014.56;16126273;19;129949;-58
2023/08/29 18:24:28;;;;;;;3.75;1.23;;;;;;;21.52;47.70;101005.97;16118250;19;130667;-57
2023/08/29 18:29:50;;;;;;;5.93;1.88;;;;;;;21.50;47.80;100999.81;16114795;19;131669;-56
2023/08/29 18:35:12;;;;;;;4.88;1.55;;;;;;;21.51;47.82;101001.50;16116881;19;131051;-59
2023/08/29 18:40:35;;;;;;;6.38;1.30;;;;;;;21.53;48.12;100998.44;16122794;19;130224;-58
2023/08/29 18:45:58;;;;;;;5.40;1.52;;;;;;;21.55;48.20;101000.94;16123057;19;129868;-60
2023/08/29 18:51:21;;;;;;;6.13;1.58;;;;;;;21.54;48.38;100994.56;16123475;19;130395;-58
2023/08/29 18:56:43;;;;;;;8.68;1.70;;;;;;;21.55;48.20;101004.59;16126050;19;131246;-55
2023/08/29 19:02:06;;;;;;;13.82;1.80;;;;;;;21.56;48.00;101002.63;16127790;19;133076;-58
2023/08/29 19:07:28;;;;;;;7.03;1.90;;;;;;;21.56;48.11;101003.50;16123912;19;129661;-57
2023/08/29 19:12:50;;;;;;;11.82;1.60;;;;;;;21.54;48.36;101002.91;16125398;19;130461;-56
2023/08/29 19:18:14;;;;;;;9.77;1.77;;;;;;;21.57;48.41;101009.88;16120728;19;130943;-58
2023/08/29 19:23:36;;;;;;;7.80;1.75;;;;;;;21.59;48.16;101018.81;16119455;19;129774;-57
2023/08/29 19:28:58;;;;;;;9.55;1.55;;;;;;;21.60;48.63;101010.19;16122838;19;129483;-58
2023/08/29 19:34:19;;;;;;;5.10;1.35;;;;;;;21.60;48.61;101009.38;16120820;19;130247;-58
2023/08/29 19:39:42;;;;;;;14.55;1.85;;;;;;;21.61;48.59;101006.31;16116527;19;130019;-58
2023/08/29 19:45:04;;;;;;;12.77;1.85;;;;;;;21.59;48.58;101007.69;16119274;19;131313;-60
2023/08/29 19:50:26;;;;;;;11.15;1.70;;;;;;;21.55;48.41;101006.53;16120269;19;130897;-58
2023/08/29 19:55:50;;;;;;;5.75;1.35;;;;;;;21.54;48.77;101004.88;16116823;19;129245;-61
2023/08/29 20:01:12;;;;;;;10.23;1.80;;;;;;;21.51;48.64;100995.94;16120791;19;131615;-57
2023/08/29 20:06:34;;;;;;;9.23;2.10;;;;;;;21.49;48.17;100992.56;16117683;19;129659;-59
2023/08/29 20:11:56;;;;;;;8.90;1.50;;;;;;;21.48;48.72;100995.56;16120607;19;129612;-62
2023/08/29 20:17:18;;;;;;;9.10;1.50;;;;;;;21.46;48.34;100992.25;16116610;19;131029;-58
2023/08/29 20:22:42;;;;;;;12.82;1.70;;;;;;;21.44;48.77;100984.13;16118311;19;131345;-58
2023/08/29 20:28:07;;;;;;;5.95;1.48;;;;;;;21.42;48.48;100980.78;16119035;19;129431;-59
2023/08/29 20:33:31;;;;;;;9.73;1.70;;;;;;;21.41;48.24;100979.13;16112583;19;130251;-56
2023/08/29 20:38:53;;;;;;;8.63;1.70;;;;;;;21.41;48.56;100976.34;16115583;19;129965;-59
2023/08/29 20:44:16;;;;;;;7.50;1.20;;;;;;;21.38;48.56;100974.06;16116042;19;129725;-58
2023/08/29 20:49:38;;;;;;;7.55;1.35;;;;;;;21.37;48.55;100972.38;16114155;19;129555;-58
2023/08/29 20:55:00;;;;;;;5.32;1.42;;;;;;;21.37;48.46;100972.38;16120842;19;130648;-60
2023/08/29 21:00:22;;;;;;;5.55;1.27;;;;;;;21.36;48.37;100970.72;16116397;19;129119;-56
2023/08/29 21:05:48;;;;;;;7.07;1.63;;;;;;;21.35;48.72;100960.69;16122223;19;129721;-62
2023/08/29 21:11:10;;;;;;;5.82;1.23;;;;;;;21.35;48.24;100957.91;16115162;19;129514;-61
2023/08/29 21:16:31;;;;;;;3.58;1.30;;;;;;;21.34;48.68;100959.00;16114856;19;129300;-62
2023/08/29 21:21:54;;;;;;;4.13;1.25;;;;;;;21.32;48.44;100953.72;16113542;19;129547;-61
2023/08/29 21:27:16;;;;;;;4.38;1.33;;;;;;;21.32;48.40;100958.41;16114101;19;130819;-59
2023/08/29 21:32:40;;;;;;;4.77;1.10;;;;;;;21.31;48.42;100951.16;16116140;19;130125;-60
2023/08/29 21:38:03;;;;;;;4.00;1.20;;;;;;;21.30;48.19;100950.34;16116562;19;129281;-60
2023/08/29 21:43:25;;;;;;;2.67;1.20;;;;;;;21.29;48.75;100943.09;16114639;19;131597;-59
2023/08/29 21:48:46;;;;;;;4.43;1.30;;;;;;;21.29;48.50;100947.84;16113461;19;130431;-59
2023/08/29 21:54:08;;;;;;;4.03;1.42;;;;;;;21.28;48.42;100952.53;16108598;19;131475;-59
2023/08/29 21:59:30;;;;;;;2.92;1.02;;;;;;;21.27;48.24;100939.72;16112743;19;130306;-59
2023/08/29 22:04:52;;;;;;;2.88;1.00;;;;;;;21.26;48.37;100929.72;16111378;19;130321;-60
2023/08/29 22:10:14;;;;;;;1.50;1.00;;;;;;;21.27;48.61;100933.34;16114333;19;131348;-60
2023/08/29 22:15:37;;;;;;;2.40;1.27;;;;;;;21.26;48.61;100926.09;16111339;19;129683;-60
2023/08/29 22:20:59;;;;;;;2.53;1.20;;;;;;;21.25;48.67;100914.13;16110658;19;129451;-61
2023/08/29 22:26:21;;;;;;;4.90;1.10;;;;;;;21.24;48.07;100906.03;16106620;19;133665;-58
2023/08/29 22:31:43;;;;;;;3.72;0.95;;;;;;;21.22;48.24;100912.72;16105690;19;129434;-59
2023/08/29 22:37:05;;;;;;;2.90;1.27;;;;;;;21.22;48.55;100898.78;16113865;19;129213;-59
2023/08/29 22:42:27;;;;;;;5.68;1.38;;;;;;;21.21;48.15;100897.13;16108508;19;129603;-57
2023/08/29 22:47:50;;;;;;;1.63;0.80;;;;;;;21.20;48.35;100901.00;16105494;19;131101;-58
2023/08/29 22:53:12;;;;;;;4.18;1.42;;;;;;;21.19;48.33;100899.31;16108443;19;131733;-58
2023/08/29 22:58:34;;;;;;;3.38;1.17;;;;;;;21.18;48.24;100897.63;16109654;19;130398;-60
2023/08/29 23:03:56;;;;;;;5.20;1.13;;;;;;;21.18;48.41;100897.63;16122912;19;129382;-62
2023/08/29 23:09:18;;;;;;;3.60;1.20;;;;;;;21.19;48.42;100890.16;16124689;19;130895;-63
2023/08/29 23:14:40;;;;;;;2.42;1.00;;;;;;;21.17;48.45;100887.59;16121788;19;132578;-63
2023/08/29 23:20:07;;;;;;;4.55;0.93;;;;;;;21.17;48.45;100873.69;16121279;19;131792;-63
2023/08/29 23:25:30;;;;;;;4.65;1.20;;;;;;;21.16;48.44;100866.50;16120117;19;132366;-59
2023/08/29 23:30:52;;;;;;;1.80;1.05;;;;;;;21.16;48.14;100860.06;16121038;19;129446;-62
2023/08/29 23:36:14;;;;;;;2.47;0.93;;;;;;;21.15;48.43;100856.47;16128260;19;129386;-57
2023/08/29 23:41:36;;;;;;;4.32;1.10;;;;;;;21.15;48.39;100847.25;16118598;19;129513;-58
2023/08/29 23:46:58;;;;;;;1.38;0.57;;;;;;;21.14;48.34;100840.88;16119993;19;131497;-57
2023/08/29 23:52:20;;;;;;;5.38;1.15;;;;;;;21.15;48.18;100847.25;16142200;19;129585;-57
2023/08/29 23:57:42;;;;;;;1.67;1.00;;;;;;;21.13;48.54;100830.84;16122141;19;132552;-58
